Time;durP1;ratioP1;P1;durP2;ratioP2;P2;SDS_P1;SDS_P2;PMS_P1;PMS_P2;Temp;Humidity;BMP_temperature;BMP_pressure;BME280_temperature;BME280_humidity;BME280_pressure;Samples;Min_cycle;Max_cycle;Signal;HPM_P1;HPM_P2
2024/01/20 00:01:06;;;;;;;16.30;9.77;;;;;;;7.07;100.00;98921.44;5091147;28;20066;-76
2024/01/20 00:03:31;;;;;;;16.60;10.40;;;;;;;7.15;100.00;98931.78;5090831;28;20035;-75
2024/01/20 00:05:57;;;;;;;13.82;9.70;;;;;;;7.08;100.00;98925.88;5091416;28;20697;-75
2024/01/20 00:08:22;;;;;;;16.42;10.35;;;;;;;6.94;100.00;98927.97;5090933;28;20435;-76
2024/01/20 00:10:47;;;;;;;16.60;9.77;;;;;;;6.80;100.00;98917.81;5091014;28;20036;-76
2024/01/20 00:13:13;;;;;;;14.65;10.77;;;;;;;6.80;100.00;98926.16;5090987;28;20389;-76
2024/01/20 00:15:39;;;;;;;15.25;10.10;;;;;;;6.81;100.00;98933.34;5089782;28;20035;-76
2024/01/20 00:18:04;;;;;;;15.57;10.20;;;;;;;6.69;100.00;98917.28;5089664;28;20028;-75
2024/01/20 00:20:30;;;;;;;17.15;10.88;;;;;;;6.80;100.00;98916.97;5088981;28;20036;-76
2024/01/20 00:22:55;;;;;;;13.88;9.63;;;;;;;6.80;100.00;98917.81;5089841;28;20088;-75
2024/01/20 00:25:21;;;;;;;15.20;9.65;;;;;;;6.87;100.00;98920.91;5090836;28;20024;-76
2024/01/20 00:27:49;;;;;;;17.05;9.60;;;;;;;6.82;100.00;98929.41;5090788;28;20024;-75
2024/01/20 00:30:15;;;;;;;15.68;9.48;;;;;;;6.73;100.00;98936.91;5089592;28;20563;-76
2024/01/20 00:32:40;;;;;;;19.80;10.20;;;;;;;6.68;100.00;98929.53;5090810;28;20141;-76
2024/01/20 00:35:06;;;;;;;17.98;11.13;;;;;;;6.70;100.00;98932.84;5090936;28;20031;-76
2024/01/20 00:37:32;;;;;;;19.67;10.20;;;;;;;6.58;100.00;98930.66;5103759;28;20058;-75
2024/01/20 00:39:58;;;;;;;15.27;9.20;;;;;;;6.58;100.00;98930.66;5090792;28;20020;-76
2024/01/20 00:42:23;;;;;;;15.55;9.27;;;;;;;6.66;100.00;98929.03;5090668;28;20093;-75
2024/01/20 00:44:49;;;;;;;22.92;9.95;;;;;;;6.70;100.00;98934.78;5090772;28;20065;-75
2024/01/20 00:47:14;;;;;;;15.52;8.30;;;;;;;6.67;100.00;98938.22;5092806;28;20027;-76
2024/01/20 00:49:40;;;;;;;11.30;8.15;;;;;;;6.77;100.00;98945.44;5105435;28;20024;-76
2024/01/20 00:52:05;;;;;;;14.07;8.88;;;;;;;6.73;100.00;98934.13;5111168;28;20100;-76
2024/01/20 00:54:31;;;;;;;14.77;8.95;;;;;;;6.69;100.00;98933.13;5104479;28;20024;-76
2024/01/20 00:56:56;;;;;;;12.73;7.75;;;;;;;6.60;100.00;98939.47;5090948;28;20020;-69
2024/01/20 00:59:22;;;;;;;14.18;7.93;;;;;;;6.61;100.00;98937.53;5090512;28;20024;-69
2024/01/20 01:01:48;;;;;;;12.48;8.52;;;;;;;6.56;100.00;98948.78;5107257;28;20035;-69
2024/01/20 01:04:13;;;;;;;11.98;7.00;;;;;;;6.55;100.00;98944.34;5110936;28;20028;-69
2024/01/20 01:06:39;;;;;;;12.05;7.70;;;;;;;6.55;100.00;98958.25;5110673;28;20399;-69
2024/01/20 01:09:04;;;;;;;13.02;8.45;;;;;;;6.53;100.00;98958.59;5114458;28;20049;-69
2024/01/20 01:11:29;;;;;;;14.43;8.73;;;;;;;6.48;100.00;98952.34;5130497;27;20513;-69
2024/01/20 01:13:55;;;;;;;13.52;8.50;;;;;;;6.51;100.00;98966.41;5129799;27;20464;-69
2024/01/20 01:16:21;;;;;;;14.60;8.50;;;;;;;6.52;100.00;98964.47;5107033;28;20067;-69
2024/01/20 01:18:46;;;;;;;12.43;7.45;;;;;;;6.50;100.00;98977.84;5093990;28;20452;-69
2024/01/20 01:21:12;;;;;;;10.95;7.28;;;;;;;6.49;100.00;98962.34;5093979;28;20020;-69
2024/01/20 01:23:37;;;;;;;10.10;7.38;;;;;;;6.45;100.00;98982.41;5092619;28;20507;-69
2024/01/20 01:26:03;;;;;;;12.40;7.65;;;;;;;6.47;100.00;98987.66;5093051;28;20028;-69
2024/01/20 01:28:28;;;;;;;13.75;8.10;;;;;;;6.40;100.00;98982.53;5093948;28;20518;-69
2024/01/20 01:30:54;;;;;;;11.50;7.25;;;;;;;6.27;100.00;98973.16;5093906;28;20480;-69
2024/01/20 01:33:19;;;;;;;15.18;7.32;;;;;;;6.39;100.00;98993.97;5095073;28;20501;-69
2024/01/20 01:35:44;;;;;;;10.02;6.60;;;;;;;6.29;100.00;98989.50;5110072;28;20049;-69
2024/01/20 01:38:10;;;;;;;9.93;6.65;;;;;;;6.30;100.00;98997.53;5114132;28;20419;-69
2024/01/20 01:40:35;;;;;;;11.02;7.45;;;;;;;6.34;100.00;98988.56;5108567;28;20035;-69
2024/01/20 01:43:01;;;;;;;12.00;7.97;;;;;;;6.23;100.00;98996.34;5093701;28;20043;-69
2024/01/20 01:45:26;;;;;;;10.77;6.85;;;;;;;6.21;100.00;99010.53;5092122;28;20032;-70
2024/01/20 01:47:54;;;;;;;15.70;7.57;;;;;;;6.23;100.00;99024.13;5094258;28;20023;-69
2024/01/20 01:50:20;;;;;;;17.42;6.55;;;;;;;6.18;100.00;99030.63;5101068;28;20041;-69
2024/01/20 01:52:50;;;;;;;10.40;6.82;;;;;;;6.07;100.00;99032.03;5112562;28;20030;-69
2024/01/20 01:55:15;;;;;;;12.82;6.05;;;;;;;5.99;100.00;99028.81;5113653;28;20027;-69
2024/01/20 01:57:42;;;;;;;11.40;6.50;;;;;;;6.01;100.00;99046.00;5113411;28;20032;-69
2024/01/20 02:00:08;;;;;;;10.43;6.65;;;;;;;6.01;100.00;99040.47;5113531;28;20080;-69
2024/01/20 02:02:34;;;;;;;11.25;6.30;;;;;;;5.86;100.00;99032.47;5112307;28;20560;-69
2024/01/20 02:04:59;;;;;;;9.07;6.38;;;;;;;5.92;100.00;99047.06;5113105;28;20019;-69
2024/01/20 02:07:25;;;;;;;10.85;6.63;;;;;;;5.92;100.00;99067.31;5106400;28;20052;-76
2024/01/20 02:09:50;;;;;;;12.93;6.22;;;;;;;5.86;100.00;99074.94;5092965;28;20043;-76
2024/01/20 02:12:17;;;;;;;11.85;5.65;;;;;;;5.78;100.00;99074.84;5091788;28;20577;-76
2024/01/20 02:14:43;;;;;;;8.15;6.07;;;;;;;5.79;100.00;99087.59;5092925;28;20151;-76
2024/01/20 02:17:09;;;;;;;12.45;6.50;;;;;;;5.77;100.00;99082.38;5093021;28;20079;-76
2024/01/20 02:19:39;;;;;;;10.35;6.68;;;;;;;5.64;100.00;99091.56;5091514;28;20012;-76
2024/01/20 02:22:15;;;;;;;10.77;5.70;;;;;;;5.60;100.00;99075.50;5092869;28;20051;-76
2024/01/20 02:24:46;;;;;;;11.05;6.35;;;;;;;5.57;100.00;99080.88;5092761;28;20450;-76
2024/01/20 02:27:12;;;;;;;12.77;5.78;;;;;;;5.52;100.00;99081.81;5108542;27;20409;-76
2024/01/20 02:29:41;;;;;;;7.65;5.50;;;;;;;5.54;100.00;99087.84;5091484;28;20082;-75
2024/01/20 02:32:07;;;;;;;10.23;5.43;;;;;;;5.53;100.00;99085.38;5112150;28;20031;-76
2024/01/20 02:34:33;;;;;;;7.85;5.60;;;;;;;5.44;100.00;99091.69;5113078;28;20023;-76
2024/01/20 02:36:59;;;;;;;9.38;5.60;;;;;;;5.44;100.00;99091.69;5106480;28;20059;-76
2024/01/20 02:39:24;;;;;;;9.93;6.10;;;;;;;5.34;100.00;99091.91;5106285;28;20568;-76
2024/01/20 02:41:50;;;;;;;12.55;7.05;;;;;;;5.39;100.00;99097.31;5092673;28;20060;-76
2024/01/20 02:44:15;;;;;;;10.60;6.43;;;;;;;5.33;100.00;99106.91;5092418;28;20031;-76
2024/01/20 02:46:41;;;;;;;9.80;5.95;;;;;;;5.31;100.00;99100.84;5092453;28;20081;-76
2024/01/20 02:49:06;;;;;;;8.38;5.57;;;;;;;5.34;100.00;99094.66;5092312;28;20041;-75
2024/01/20 02:51:31;;;;;;;8.15;5.35;;;;;;;5.41;100.00;99108.13;5091181;28;20031;-76
2024/01/20 02:53:58;;;;;;;6.65;5.40;;;;;;;5.26;100.00;99109.25;5092350;28;20085;-76
2024/01/20 02:56:24;;;;;;;7.78;5.70;;;;;;;5.23;100.00;99110.69;5092199;28;20027;-76
2024/01/20 02:58:53;;;;;;;9.23;5.90;;;;;;;5.25;100.00;99130.63;5091420;28;20483;-76
2024/01/20 03:01:18;;;;;;;7.85;5.72;;;;;;;5.17;100.00;99136.88;5101444;28;20059;-75
2024/01/20 03:03:45;;;;;;;10.43;6.35;;;;;;;5.24;100.00;99142.00;5112533;28;20479;-76
2024/01/20 03:06:11;;;;;;;9.23;5.95;;;;;;;5.15;100.00;99144.69;5111607;28;20023;-76
2024/01/20 03:08:36;;;;;;;9.70;5.03;;;;;;;5.18;100.00;99144.88;5092286;28;20419;-76
2024/01/20 03:11:02;;;;;;;7.47;5.30;;;;;;;5.18;100.00;99150.41;5091769;28;20040;-76
2024/01/20 03:13:27;;;;;;;7.30;5.10;;;;;;;5.10;100.00;99156.69;5107608;28;20032;-76
2024/01/20 03:15:52;;;;;;;9.68;5.45;;;;;;;5.10;100.00;99165.00;5091095;28;20488;-74
2024/01/20 03:18:18;;;;;;;6.25;5.07;;;;;;;5.07;100.00;99173.94;5102442;28;20035;-74
2024/01/20 03:20:43;;;;;;;18.90;6.40;;;;;;;5.04;100.00;99169.00;5091592;28;20028;-74
2024/01/20 03:23:09;;;;;;;7.78;5.47;;;;;;;4.99;100.00;99171.88;5090562;28;20039;-74
2024/01/20 03:25:34;;;;;;;9.73;6.38;;;;;;;5.09;100.00;99180.00;5091664;28;20105;-74
2024/01/20 03:28:00;;;;;;;8.65;5.55;;;;;;;5.16;100.00;99176.84;5108430;28;20031;-74
2024/01/20 03:30:25;;;;;;;11.85;6.57;;;;;;;5.17;100.00;99184.00;5105183;28;20024;-74
2024/01/20 03:32:51;;;;;;;10.77;6.82;;;;;;;5.19;100.00;99188.13;5107098;28;20062;-74
2024/01/20 03:35:17;;;;;;;11.43;7.68;;;;;;;5.29;100.00;99195.44;5111773;28;20442;-74
2024/01/20 03:37:42;;;;;;;10.55;7.88;;;;;;;5.37;100.00;99205.00;5110208;28;20235;-74
2024/01/20 03:40:08;;;;;;;10.20;6.70;;;;;;;5.36;100.00;99200.56;5110443;28;20042;-74
2024/01/20 03:42:34;;;;;;;13.05;6.50;;;;;;;5.39;100.00;99219.38;5111899;28;20038;-73
2024/01/20 03:44:59;;;;;;;11.63;6.20;;;;;;;5.36;99.87;99230.25;5100244;28;20027;-73
2024/01/20 03:47:25;;;;;;;9.55;5.53;;;;;;;5.33;99.53;99229.75;5100302;28;20024;-74
2024/01/20 03:49:50;;;;;;;9.60;5.32;;;;;;;5.37;100.00;99238.28;5108724;28;20028;-74
2024/01/20 03:52:16;;;;;;;7.03;4.68;;;;;;;5.26;100.00;99242.38;5111735;28;20023;-74
2024/01/20 03:54:42;;;;;;;10.18;5.75;;;;;;;5.29;100.00;99241.75;5110351;28;20388;-74
2024/01/20 03:57:08;;;;;;;11.35;4.80;;;;;;;5.32;100.00;99235.59;5101344;28;20039;-74
2024/01/20 03:59:33;;;;;;;6.78;4.68;;;;;;;5.25;99.45;99232.41;5096690;28;20031;-74
2024/01/20 04:01:59;;;;;;;7.95;5.40;;;;;;;5.31;99.45;99237.53;5110132;28;20115;-74
2024/01/20 04:04:24;;;;;;;5.95;4.60;;;;;;;5.27;98.17;99244.84;5110229;28;20027;-74
2024/01/20 04:06:49;;;;;;;10.60;6.45;;;;;;;5.12;99.05;99245.94;5101732;28;20027;-74
2024/01/20 04:09:15;;;;;;;10.55;6.53;;;;;;;5.04;99.93;99254.94;5111344;28;20100;-73
2024/01/20 04:11:40;;;;;;;6.22;4.85;;;;;;;5.11;100.00;99255.38;5111423;28;20076;-74
2024/01/20 04:14:06;;;;;;;14.55;5.93;;;;;;;4.94;100.00;99255.09;5111558;28;20031;-74
2024/01/20 04:16:31;;;;;;;6.07;5.28;;;;;;;4.95;99.75;99254.81;5103378;28;20062;-74
2024/01/20 04:18:57;;;;;;;10.57;5.70;;;;;;;4.87;100.00;99253.56;5091520;28;20020;-74
2024/01/20 04:21:22;;;;;;;12.27;6.20;;;;;;;4.87;100.00;99263.81;5111336;28;20641;-74
2024/01/20 04:23:49;;;;;;;17.73;7.18;;;;;;;4.75;99.21;99261.50;5110228;28;20035;-74
2024/01/20 04:26:16;;;;;;;16.63;8.00;;;;;;;4.69;100.00;99282.09;5108729;28;20059;-76
2024/01/20 04:28:41;;;;;;;7.45;4.93;;;;;;;4.67;100.00;99282.41;5110134;28;20023;-76
2024/01/20 04:31:07;;;;;;;6.10;4.10;;;;;;;4.62;99.69;99291.63;5111254;28;20038;-76
2024/01/20 04:33:34;;;;;;;5.57;4.70;;;;;;;4.49;100.00;99289.59;5110048;28;20384;-76
2024/01/20 04:36:01;;;;;;;6.65;4.90;;;;;;;4.40;99.22;99286.66;5109725;28;20458;-76
2024/01/20 04:38:26;;;;;;;6.85;4.97;;;;;;;4.39;100.00;99295.28;5100069;28;20089;-76
2024/01/20 04:40:53;;;;;;;9.65;6.10;;;;;;;4.35;98.76;99286.72;5089415;28;20438;-76
2024/01/20 04:43:18;;;;;;;15.65;6.13;;;;;;;4.29;98.94;99308.13;5094429;28;20058;-76
2024/01/20 04:45:44;;;;;;;7.78;4.97;;;;;;;4.27;100.00;99293.75;5093476;28;20047;-75
2024/01/20 04:48:09;;;;;;;9.18;4.85;;;;;;;4.24;100.00;99288.00;5095332;28;20051;-75
2024/01/20 04:50:35;;;;;;;9.63;4.55;;;;;;;4.19;100.00;99303.56;5116150;28;20510;-76
2024/01/20 04:53:00;;;;;;;4.20;3.60;;;;;;;4.17;100.00;99322.41;5112413;28;20019;-77
2024/01/20 04:55:26;;;;;;;5.82;4.25;;;;;;;4.17;99.90;99324.34;5095364;28;20035;-76
2024/01/20 04:57:51;;;;;;;7.80;4.32;;;;;;;4.17;99.34;99340.97;5109535;28;20020;-76
2024/01/20 05:00:17;;;;;;;6.38;3.85;;;;;;;4.17;99.01;99330.72;5114841;28;20020;-75
2024/01/20 05:02:42;;;;;;;4.10;3.47;;;;;;;4.16;97.71;99336.53;5114693;28;20035;-77
2024/01/20 05:05:08;;;;;;;5.30;3.40;;;;;;;4.14;98.58;99334.06;5114901;28;20030;-76
2024/01/20 05:07:33;;;;;;;6.30;3.88;;;;;;;4.17;98.49;99354.81;5109126;28;20036;-76
2024/01/20 05:09:59;;;;;;;6.70;4.00;;;;;;;4.24;98.87;99366.34;5093517;28;20146;-76
2024/01/20 05:12:25;;;;;;;6.57;4.60;;;;;;;4.17;97.79;99368.66;5109933;28;20119;-76
2024/01/20 05:14:52;;;;;;;5.60;4.60;;;;;;;4.21;98.63;99375.22;5094356;28;20555;-76
2024/01/20 05:17:18;;;;;;;6.28;4.55;;;;;;;4.16;98.38;99389.16;5094127;28;20107;-76
2024/01/20 05:19:43;;;;;;;16.90;5.45;;;;;;;4.23;99.87;99397.94;5094128;28;20028;-76
2024/01/20 05:22:08;;;;;;;7.55;5.28;;;;;;;4.24;99.89;99395.97;5094172;28;20070;-76
2024/01/20 05:24:34;;;;;;;8.50;6.85;;;;;;;4.26;99.65;99413.97;5094042;28;20020;-76
2024/01/20 05:27:00;;;;;;;5.15;4.25;;;;;;;4.18;98.21;99420.13;5101102;28;20020;-76
2024/01/20 05:29:25;;;;;;;7.40;4.90;;;;;;;4.16;99.37;99405.75;5092658;28;20028;-76
2024/01/20 05:31:51;;;;;;;6.40;4.80;;;;;;;4.15;99.78;99431.78;5092670;28;20420;-76
2024/01/20 05:34:16;;;;;;;9.68;5.63;;;;;;;4.08;99.16;99426.59;5093984;28;20488;-76
2024/01/20 05:36:42;;;;;;;7.65;4.93;;;;;;;4.13;97.65;99429.31;5092505;28;20514;-69
2024/01/20 05:39:07;;;;;;;5.43;4.25;;;;;;;4.05;98.35;99433.53;5094902;28;20487;-69
2024/01/20 05:41:33;;;;;;;6.65;4.20;;;;;;;4.12;97.39;99432.38;5093821;28;20028;-69
2024/01/20 05:43:58;;;;;;;5.80;3.92;;;;;;;4.06;96.07;99435.19;5093626;28;20020;-70
2024/01/20 05:46:24;;;;;;;7.10;5.13;;;;;;;4.03;95.41;99435.78;5093887;28;20073;-69
2024/01/20 05:48:49;;;;;;;4.97;3.72;;;;;;;4.00;96.46;99439.16;5099946;28;20076;-69
2024/01/20 05:51:15;;;;;;;4.85;3.85;;;;;;;4.10;94.88;99459.50;5113914;28;20020;-69
2024/01/20 05:53:40;;;;;;;6.13;3.78;;;;;;;4.03;95.14;99462.63;5112372;28;20031;-69
2024/01/20 05:56:06;;;;;;;5.38;4.50;;;;;;;4.00;94.95;99464.06;5113542;28;20492;-69
2024/01/20 05:58:31;;;;;;;6.20;4.40;;;;;;;3.86;94.07;99474.13;5096918;28;20015;-69
2024/01/20 06:00:59;;;;;;;7.32;4.13;;;;;;;3.89;93.33;99471.59;5099375;28;20407;-71
2024/01/20 06:03:27;;;;;;;9.10;4.55;;;;;;;3.78;93.96;99461.75;5093253;28;20114;-69
2024/01/20 06:05:56;;;;;;;14.35;6.30;;;;;;;3.70;94.00;99459.63;5092310;28;20024;-71
2024/01/20 06:08:22;;;;;;;16.20;6.43;;;;;;;3.75;93.63;99462.34;5094380;28;20030;-70
2024/01/20 06:10:47;;;;;;;11.07;4.63;;;;;;;3.72;93.82;99483.09;5113508;28;20498;-70
2024/01/20 06:13:13;;;;;;;8.75;4.80;;;;;;;3.90;93.60;99508.41;5113634;27;20038;-71
2024/01/20 06:15:38;;;;;;;9.80;4.10;;;;;;;3.91;94.22;99515.59;5113604;28;20024;-69
2024/01/20 06:18:04;;;;;;;6.53;3.90;;;;;;;3.84;93.04;99517.88;5095068;28;20487;-68
2024/01/20 06:20:29;;;;;;;5.57;4.25;;;;;;;3.74;92.53;99508.56;5111287;28;20075;-70
2024/01/20 06:22:56;;;;;;;5.97;4.13;;;;;;;3.73;92.49;99523.47;5103821;28;20422;-68
2024/01/20 06:25:21;;;;;;;8.60;4.05;;;;;;;3.81;93.42;99521.22;5112861;28;20020;-69
2024/01/20 06:27:47;;;;;;;5.90;4.43;;;;;;;3.67;93.76;99527.41;5111708;28;20548;-69
2024/01/20 06:30:12;;;;;;;10.45;5.40;;;;;;;3.60;94.36;99526.88;5112847;28;20076;-69
2024/01/20 06:32:39;;;;;;;8.40;5.18;;;;;;;3.60;97.29;99546.25;5123749;27;20420;-70
2024/01/20 06:35:04;;;;;;;11.35;5.30;;;;;;;3.48;97.97;99541.09;5107110;28;20032;-68
2024/01/20 06:37:30;;;;;;;10.77;5.85;;;;;;;3.41;98.66;99554.38;5127492;27;20121;-68
2024/01/20 06:39:55;;;;;;;10.02;5.50;;;;;;;3.27;98.90;99560.53;5111255;27;20066;-68
2024/01/20 06:42:21;;;;;;;8.65;4.65;;;;;;;3.27;100.00;99559.75;5103396;28;20035;-68
2024/01/20 06:44:46;;;;;;;8.45;5.03;;;;;;;3.29;100.00;99565.81;5097920;28;20044;-68
2024/01/20 06:47:12;;;;;;;12.40;4.88;;;;;;;3.26;98.38;99560.81;5099311;28;20389;-69
2024/01/20 06:49:39;;;;;;;10.23;6.10;;;;;;;3.25;100.00;99575.75;5101198;28;20023;-72
2024/01/20 06:52:05;;;;;;;9.93;6.30;;;;;;;3.22;100.00;99580.75;5109894;28;20031;-73
2024/01/20 06:54:30;;;;;;;4.57;3.15;;;;;;;3.17;100.00;99586.31;5108948;28;20126;-71
2024/01/20 06:56:56;;;;;;;8.35;4.20;;;;;;;3.15;100.00;99585.78;5106164;28;20031;-73
2024/01/20 06:59:21;;;;;;;3.17;2.88;;;;;;;3.11;100.00;99601.25;5108287;28;20016;-73
2024/01/20 07:01:46;;;;;;;6.18;5.45;;;;;;;3.03;100.00;99602.66;5109699;28;20110;-74
2024/01/20 07:04:12;;;;;;;3.67;2.60;;;;;;;3.08;100.00;99610.94;5101708;28;20078;-73
2024/01/20 07:06:37;;;;;;;7.22;5.07;;;;;;;3.09;100.00;99609.84;5099051;28;20039;-72
2024/01/20 07:09:05;;;;;;;4.70;3.60;;;;;;;3.09;100.00;99620.91;5100944;28;20039;-74
2024/01/20 07:11:31;;;;;;;3.97;3.47;;;;;;;2.85;100.00;99611.56;5124742;27;20507;-71
2024/01/20 07:13:57;;;;;;;4.40;3.28;;;;;;;2.80;100.00;99620.69;5097913;28;20028;-74
2024/01/20 07:16:23;;;;;;;5.72;4.57;;;;;;;2.76;100.00;99637.00;5094077;28;20486;-76
2024/01/20 07:18:49;;;;;;;6.72;4.50;;;;;;;2.57;100.00;99631.22;5098614;28;20466;-76
2024/01/20 07:21:15;;;;;;;8.50;4.82;;;;;;;2.51;100.00;99648.88;5095546;28;20563;-71
2024/01/20 07:23:41;;;;;;;9.90;6.53;;;;;;;2.38;100.00;99653.84;5089345;28;20047;-73
2024/01/20 07:26:06;;;;;;;13.27;8.05;;;;;;;2.30;100.00;99656.34;5090483;28;20035;-74
2024/01/20 07:28:32;;;;;;;10.63;6.15;;;;;;;2.14;100.00;99661.03;5096155;28;20035;-74
2024/01/20 07:30:58;;;;;;;7.18;5.20;;;;;;;2.09;100.00;99678.41;5097593;28;20036;-77
2024/01/20 07:33:24;;;;;;;7.35;3.95;;;;;;;1.70;100.00;99670.59;5098704;28;20082;-76
2024/01/20 07:35:49;;;;;;;4.35;3.78;;;;;;;1.58;100.00;99681.84;5097447;28;20074;-72
2024/01/20 07:38:16;;;;;;;5.68;4.10;;;;;;;1.38;100.00;99681.47;5103647;28;20032;-77
2024/01/20 07:40:41;;;;;;;6.45;4.30;;;;;;;1.42;100.00;99706.59;5105796;28;20385;-78
2024/01/20 07:43:07;;;;;;;6.95;4.65;;;;;;;1.23;100.00;99712.56;5089752;28;20043;-82
2024/01/20 07:45:33;;;;;;;7.60;4.80;;;;;;;1.23;100.00;99720.84;5088460;28;20036;-77
2024/01/20 07:47:59;;;;;;;6.03;4.65;;;;;;;1.10;100.00;99724.06;5089721;28;20727;-74
2024/01/20 07:50:24;;;;;;;5.57;5.00;;;;;;;1.13;100.00;99737.31;5108192;28;20069;-82
2024/01/20 07:52:50;;;;;;;6.78;4.85;;;;;;;0.97;100.00;99739.97;5108146;28;20027;-79
2024/01/20 07:55:15;;;;;;;5.68;4.57;;;;;;;0.86;100.00;99738.22;5105674;28;20042;-78
2024/01/20 07:57:41;;;;;;;6.45;4.28;;;;;;;0.80;100.00;99750.28;5124391;27;20035;-78
2024/01/20 08:00:10;;;;;;;8.77;6.78;;;;;;;0.82;100.00;99751.69;5089481;28;20028;-75
2024/01/20 08:02:36;;;;;;;9.25;5.93;;;;;;;0.67;100.00;99757.88;5095846;28;20496;-76
2024/01/20 08:05:05;;;;;;;15.55;8.27;;;;;;;0.61;100.00;99758.94;5106757;28;20142;-75
2024/01/20 08:07:31;;;;;;;7.15;6.15;;;;;;;0.49;100.00;99761.03;5095844;28;20039;-74
2024/01/20 08:09:57;;;;;;;7.40;5.90;;;;;;;0.43;100.00;99756.56;5105607;28;20043;-73
2024/01/20 08:12:22;;;;;;;9.80;6.38;;;;;;;0.35;100.00;99769.69;5090965;28;20481;-76
2024/01/20 08:14:48;;;;;;;14.30;8.60;;;;;;;0.35;100.00;99775.19;5088238;28;20028;-73
2024/01/20 08:17:14;;;;;;;11.45;7.25;;;;;;;0.25;100.00;99781.44;5104251;28;20139;-78
2024/01/20 08:19:39;;;;;;;13.95;8.50;;;;;;;0.28;100.00;99767.16;5112529;28;20489;-73
2024/01/20 08:22:06;;;;;;;8.43;6.40;;;;;;;0.26;100.00;99785.03;5110531;28;20119;-76
2024/01/20 08:24:32;;;;;;;9.73;6.10;;;;;;;0.27;100.00;99794.94;5110991;28;20027;-71
2024/01/20 08:26:57;;;;;;;12.68;7.53;;;;;;;0.19;100.00;99800.91;5107279;28;20039;-76
2024/01/20 08:29:23;;;;;;;16.40;10.52;;;;;;;0.12;100.00;99810.19;5107970;28;20404;-69
2024/01/20 08:31:49;;;;;;;15.70;9.18;;;;;;;0.17;100.00;99817.66;5092481;28;20085;-73
2024/01/20 08:34:14;;;;;;;14.95;9.25;;;;;;;0.19;100.00;99823.75;5092597;28;20423;-71
2024/01/20 08:36:40;;;;;;;16.88;9.30;;;;;;;0.24;100.00;99831.22;5096917;28;20028;-71
2024/01/20 08:39:05;;;;;;;17.88;10.43;;;;;;;0.23;100.00;99826.78;5097523;28;20513;-72
2024/01/20 08:41:31;;;;;;;12.82;7.75;;;;;;;0.15;100.00;99838.28;5091870;28;20150;-72
2024/01/20 08:43:57;;;;;;;13.52;7.03;;;;;;;0.24;100.00;99839.47;5087203;28;20172;-72
2024/01/20 08:46:25;;;;;;;13.77;8.23;;;;;;;0.11;100.00;99846.19;5105232;28;20106;-71
2024/01/20 08:48:50;;;;;;;16.92;9.60;;;;;;;0.14;100.00;99859.44;5105778;28;20093;-72
2024/01/20 08:51:16;;;;;;;16.50;9.95;;;;;;;0.17;100.00;99849.84;5099637;28;20420;-72
2024/01/20 08:53:41;;;;;;;13.80;8.52;;;;;;;0.14;100.00;99859.44;5103608;28;20032;-73
2024/01/20 08:56:07;;;;;;;14.57;9.07;;;;;;;0.10;100.00;99861.88;5100466;28;20136;-72
2024/01/20 08:58:33;;;;;;;16.65;9.60;;;;;;;0.21;100.00;99860.09;5097424;28;20078;-74
2024/01/20 09:00:58;;;;;;;16.00;9.45;;;;;;;0.18;100.00;99874.38;5097638;28;20016;-74
2024/01/20 09:03:24;;;;;;;15.70;9.90;;;;;;;0.32;100.00;99869.28;5106759;28;20036;-73
2024/01/20 09:05:50;;;;;;;22.83;12.32;;;;;;;0.17;100.00;99880.94;5096733;28;20055;-73
2024/01/20 09:08:16;;;;;;;26.02;16.23;;;;;;;0.27;100.00;99883.00;5109768;28;20582;-82
2024/01/20 09:10:41;;;;;;;33.42;19.10;;;;;;;0.39;100.00;99883.69;5093612;28;20469;-75
2024/01/20 09:13:07;;;;;;;29.08;16.73;;;;;;;0.32;100.00;99885.81;5105473;28;20044;-71
2024/01/20 09:15:32;;;;;;;35.13;19.10;;;;;;;0.31;100.00;99875.88;5104276;28;20418;-70
2024/01/20 09:17:58;;;;;;;43.30;23.23;;;;;;;0.45;100.00;99876.34;5108808;28;20035;-72
2024/01/20 09:20:23;;;;;;;43.17;24.42;;;;;;;0.64;100.00;99884.22;5088179;28;20845;-72
2024/01/20 09:22:49;;;;;;;53.45;27.38;;;;;;;0.86;100.00;99886.13;5089968;28;20093;-70
2024/01/20 09:25:16;;;;;;;27.52;17.25;;;;;;;1.01;100.00;99893.69;5109267;28;20063;-71
2024/01/20 09:27:41;;;;;;;22.73;12.70;;;;;;;1.03;100.00;99895.13;5110022;28;20015;-70
2024/01/20 09:30:07;;;;;;;27.35;16.63;;;;;;;1.02;100.00;99889.84;5106300;28;20031;-72
2024/01/20 09:32:33;;;;;;;31.55;16.75;;;;;;;0.96;100.00;99888.97;5088854;28;20031;-72
2024/01/20 09:35:05;;;;;;;43.58;18.02;;;;;;;0.84;100.00;99889.13;5091761;28;20046;-69
2024/01/20 09:37:30;;;;;;;42.13;20.80;;;;;;;0.80;100.00;99890.72;5090141;28;20089;-71
2024/01/20 09:39:57;;;;;;;39.78;19.48;;;;;;;0.95;100.00;99901.91;5088921;28;20571;-70
2024/01/20 09:42:22;;;;;;;32.20;17.73;;;;;;;1.05;100.00;99901.19;5107795;28;20027;-73
2024/01/20 09:44:50;;;;;;;36.20;18.50;;;;;;;1.10;100.00;99897.66;5112425;27;20092;-70
2024/01/20 09:47:16;;;;;;;35.05;21.90;;;;;;;0.96;100.00;99900.81;5107134;28;20127;-71
2024/01/20 09:49:41;;;;;;;32.97;20.80;;;;;;;0.64;100.00;99917.28;5091620;28;20426;-70
2024/01/20 09:52:15;;;;;;;33.63;20.25;;;;;;;0.68;100.00;99912.94;5106797;28;20028;-69
2024/01/20 09:55:07;;;;;;;28.50;16.55;;;;;;;1.00;100.00;99905.81;5090219;28;20034;-70
2024/01/20 09:57:35;;;;;;;17.98;13.05;;;;;;;0.94;100.00;99902.19;5091571;28;20054;-70
2024/01/20 10:00:02;;;;;;;20.17;11.70;;;;;;;1.07;100.00;99912.78;5097044;28;20495;-70
2024/01/20 10:02:29;;;;;;;25.42;12.68;;;;;;;1.07;100.00;99912.78;5102564;28;20036;-70
2024/01/20 10:05:00;;;;;;;18.25;11.65;;;;;;;1.13;100.00;99913.66;5093587;28;20408;-70
2024/01/20 10:07:27;;;;;;;18.33;11.02;;;;;;;1.16;100.00;99915.06;5106502;28;20465;-68
2024/01/20 10:09:53;;;;;;;28.90;15.98;;;;;;;1.23;100.00;99916.50;5101367;28;20043;-70
2024/01/20 10:12:18;;;;;;;23.75;15.43;;;;;;;1.21;100.00;99913.19;5101160;28;20507;-70
2024/01/20 10:14:43;;;;;;;19.35;12.60;;;;;;;1.28;100.00;99912.97;5108793;28;20526;-71
2024/01/20 10:17:09;;;;;;;41.80;18.67;;;;;;;1.17;100.00;99923.06;5108668;28;20035;-71
2024/01/20 10:19:34;;;;;;;89.78;33.47;;;;;;;1.16;100.00;99918.63;5103528;28;20042;-72
2024/01/20 10:22:00;;;;;;;52.55;25.80;;;;;;;1.24;100.00;99922.84;5111334;28;20084;-73
2024/01/20 10:24:25;;;;;;;155.20;67.43;;;;;;;1.19;100.00;99931.88;5111520;27;20027;-74
2024/01/20 10:26:52;;;;;;;146.10;62.92;;;;;;;1.27;100.00;99927.84;5111527;28;20491;-73
2024/01/20 10:29:18;;;;;;;46.53;24.35;;;;;;;1.20;100.00;99932.72;5109716;28;20035;-71
2024/01/20 10:31:43;;;;;;;54.95;38.40;;;;;;;1.19;100.00;99934.66;5111195;28;20034;-72
2024/01/20 10:34:09;;;;;;;27.60;16.73;;;;;;;1.25;100.00;99933.63;5102349;28;20032;-75
2024/01/20 10:36:35;;;;;;;25.75;17.17;;;;;;;1.30;100.00;99934.75;5124505;27;20024;-71
2024/01/20 10:39:04;;;;;;;24.67;13.27;;;;;;;1.18;100.00;99938.50;5109915;28;20456;-77
2024/01/20 10:41:32;;;;;;;31.38;21.55;;;;;;;1.11;100.00;99932.38;5106293;28;20466;-73
2024/01/20 10:44:04;;;;;;;40.88;28.20;;;;;;;1.11;100.00;99935.13;5109772;28;20064;-74
2024/01/20 10:46:36;;;;;;;30.60;22.10;;;;;;;1.23;100.00;99938.56;5109964;28;20620;-74
2024/01/20 10:49:07;;;;;;;23.35;15.43;;;;;;;1.17;100.00;99938.78;5108809;28;20107;-73
2024/01/20 10:51:34;;;;;;;22.20;14.68;;;;;;;1.04;100.00;99945.53;5101070;28;20043;-78
2024/01/20 10:54:02;;;;;;;17.08;11.50;;;;;;;1.11;100.00;99935.94;5091778;28;20081;-73
2024/01/20 10:56:29;;;;;;;17.20;11.98;;;;;;;1.16;100.00;99948.94;5090919;28;20032;-73
2024/01/20 10:59:08;;;;;;;20.45;12.63;;;;;;;0.94;100.00;99943.50;5108063;28;20032;-74
2024/01/20 11:01:38;;;;;;;38.05;17.20;;;;;;;0.77;100.00;99938.09;5103831;28;20030;-72
2024/01/20 11:04:04;;;;;;;57.60;27.63;;;;;;;0.77;100.00;99949.91;5110709;28;20515;-74
2024/01/20 11:06:30;;;;;;;49.80;24.92;;;;;;;0.76;100.00;99940.00;5106322;28;20028;-75
2024/01/20 11:08:55;;;;;;;43.85;20.52;;;;;;;0.76;100.00;99947.44;5103521;28;20031;-73
2024/01/20 11:11:27;;;;;;;53.20;24.45;;;;;;;0.66;100.00;99945.38;5102747;28;20504;-74
2024/01/20 11:13:57;;;;;;;43.55;21.38;;;;;;;0.68;100.00;99957.00;5090403;28;20020;-75
2024/01/20 11:16:23;;;;;;;35.42;22.58;;;;;;;0.77;100.00;99958.19;5088758;28;20048;-73
2024/01/20 11:18:49;;;;;;;43.65;23.52;;;;;;;0.84;100.00;99964.31;5095026;28;20055;-75
2024/01/20 11:21:16;;;;;;;43.72;22.25;;;;;;;0.81;100.00;99959.34;5104920;28;20036;-76
2024/01/20 11:24:01;;;;;;;42.67;22.60;;;;;;;0.98;100.00;99959.25;5089614;28;20047;-77